INFORMACIÓN METAR y TAF
METAR FOR LECO
ADDS - METARS form results

(0224 UTC 16 December 2019)
Data provider http://aviationweather.gov/metar/data/
 
METAR text: LECO 160200Z AUTO 00000KT 6000 RA OVC044 08/08 Q1001
Conditions at: LECO (LA CORUNA/ALVEDR, ES) observed 0200 UTC 16 December 2019
Temperature: 8.0°C (46°F)
Dewpoint: 8.0°C (46°F) [RH = 100%]
Pressure (altimeter): 29.56 inches Hg (1001.0 mb)
Winds: calm
Visibility: 4 miles ( 6 km)
Ceiling: 4400 feet AGL
Clouds: overcast cloud deck at 4400 feet AGL
Weather: RA  (moderate rain)

METAR text: LECO 160130Z AUTO 00000KT 8000 -RA BKN044 08/08 Q1002 RERA
Conditions at: LECO (LA CORUNA/ALVEDR, ES) observed 0130 UTC 16 December 2019
Temperature: 8.0°C (46°F)
Dewpoint: 8.0°C (46°F) [RH = 100%]
Pressure (altimeter): 29.59 inches Hg (1002.0 mb)
Winds: calm
Visibility: 5 miles ( 8 km)
Ceiling: 4400 feet AGL
Clouds: broken clouds at 4400 feet AGL
Weather: -RA  (light rain)

Forecast for: LECO (LA CORUNA/ALVEDR, ES)
Text: TAF LECO 152000Z 1521/1621 18005KT 9999 SCT035 TX10/1614Z TN06/1605Z
Forecast period: 2100 UTC 15 December 2019 to 0600 UTC 16 December 2019
Forecast type: FROM: standard forecast or significant change
Winds: from the S (180 degrees) at 6 MPH (5 knots; 2.6 m/s)
Visibility: 6 or more miles 10+ km)
Ceiling: at least 12,000 feet AGL
Clouds: scattered clouds at 3500 feet AGL
Weather: no significant weather forecast for this period
Text: BECMG 1606/1608 30010KT
Forecast period: 0600 to 2100 UTC 16 December 2019
Forecast type: BECOMING: Conditions expected to become as follows by 0800 UTC 16 December 2019
Winds: from the WNW (300 degrees) at 12 MPH (10 knots; 5.1 m/s)
Visibility: 6 or more miles 10+ km)
Ceiling: at least 12,000 feet AGL
Clouds: scattered clouds at 3500 feet AGL
Weather: no significant weather forecast for this period
Text: TEMPO 1521/1618 RA BKN014
Forecast period: 2100 UTC 15 December 2019 to 1800 UTC 16 December 2019
Forecast type: TEMPORARY: The following changes expected for less than half the time period
Visibility: missing
Ceiling: 1400 feet AGL
Clouds: broken clouds at 1400 feet AGL
Weather: RA  (moderate rain)
Text: PROB40
Forecast period: 0000 to 1200 UTC 16 December 2019
Forecast type: TEMPORARY: The following changes expected for less than half the time period
Visibility: 1.86 miles (2.99 km)
Ceiling: unknown
Clouds: missing
Weather: -RA BR  (light rain, mist)

MAPA DE AEROPUERTO

INFORMACIÓN DE PISTA
Pista 03 Longitud 6358 ft Ancho 148 ft
Elevación 327 ft Umbral desplazado 0 ft Rumbo de pista 31
Pista 21 Longitud 6358 ft Ancho 148 ft
Elevación 286 ft Umbral desplazado 0 ft Rumbo de pista 211

FRECUANCIAS DEL AEROPUERTO
Tipo APP Nombre SANTIAGO A Frecuencia 120.2 MHZ
Tipo GND Nombre GND Frecuencia 121.7 MHZ
Tipo TWR Nombre A Coruña T Frecuencia 118.3 MHZ

RADIO AYUDAS DEL AEROPUERTO
Tipo NDB Nombre La Coruna Frecuencia 401 KHZ
Tipo VOR-DME Nombre La Coruna Frecuencia 115100 KHZ